createdAt,value
2023-04-16T00:02:08.919Z,63.86
2023-04-16T00:04:35.711Z,64.07
2023-04-16T00:07:02.524Z,64.02
2023-04-16T00:09:29.166Z,63.60
2023-04-16T00:11:56.171Z,63.45
2023-04-16T00:14:22.776Z,63.73
2023-04-16T00:16:49.450Z,63.09
2023-04-16T00:19:20.963Z,63.14
2023-04-16T00:21:50.210Z,63.02
2023-04-16T00:24:16.871Z,63.43
2023-04-16T00:26:45.269Z,63.16
2023-04-16T00:29:12.512Z,63.26
2023-04-16T00:31:39.147Z,63.11
2023-04-16T00:34:05.887Z,63.01
2023-04-16T00:36:32.519Z,63.55
2023-04-16T00:38:59.116Z,63.11
2023-04-16T00:41:26.306Z,63.44
2023-04-16T00:43:53.295Z,63.84
2023-04-16T00:46:23.659Z,63.23
2023-04-16T00:48:51.759Z,63.33
2023-04-16T00:51:19.204Z,63.58
2023-04-16T00:53:46.670Z,63.83
2023-04-16T00:56:17.528Z,63.84
2023-04-16T00:58:44.935Z,63.90
2023-04-16T01:01:11.769Z,63.37
2023-04-16T01:03:41.293Z,64.15
2023-04-16T01:06:08.214Z,63.87
2023-04-16T01:08:34.891Z,63.93
2023-04-16T01:11:04.803Z,63.82
2023-04-16T01:13:34.171Z,63.37
2023-04-16T01:16:01.371Z,63.90
2023-04-16T01:18:28.053Z,63.73
2023-04-16T01:20:57.074Z,63.65
2023-04-16T01:23:23.750Z,63.58
2023-04-16T01:25:50.359Z,63.73
2023-04-16T01:28:17.102Z,63.52
2023-04-16T01:30:46.244Z,64.09
2023-04-16T01:33:14.400Z,63.84
2023-04-16T01:35:42.224Z,63.77
2023-04-16T01:38:11.502Z,63.53
2023-04-16T01:40:38.254Z,63.57
2023-04-16T01:43:07.730Z,64.08
2023-04-16T01:45:38.802Z,64.43
2023-04-16T01:48:05.755Z,64.09
2023-04-16T01:50:32.474Z,64.27
2023-04-16T01:52:59.141Z,64.63
2023-04-16T01:55:25.891Z,64.06
2023-04-16T01:57:54.752Z,64.40
2023-04-16T02:00:23.697Z,64.05
2023-04-16T02:02:50.528Z,63.91
2023-04-16T02:05:17.273Z,64.49
2023-04-16T02:07:46.132Z,64.18
2023-04-16T02:10:12.764Z,64.48
2023-04-16T02:12:39.444Z,64.47
2023-04-16T02:15:06.618Z,64.12
2023-04-16T02:17:33.254Z,64.10
2023-04-16T02:20:05.696Z,64.93
2023-04-16T02:22:35.451Z,64.74
2023-04-16T02:25:04.296Z,64.45
2023-04-16T02:27:33.216Z,64.88
2023-04-16T02:30:04.393Z,64.77
2023-04-16T02:32:31.295Z,64.92
2023-04-16T02:34:57.922Z,64.74
2023-04-16T02:37:25.970Z,64.51
2023-04-16T02:39:53.502Z,64.80
2023-04-16T02:42:20.109Z,64.83
2023-04-16T02:44:46.771Z,64.56
2023-04-16T02:47:13.386Z,64.53
2023-04-16T02:49:40.000Z,64.52
2023-04-16T02:52:06.618Z,64.50
2023-04-16T02:54:33.192Z,64.39
2023-04-16T02:56:59.800Z,64.98
2023-04-16T02:59:28.815Z,65.43
2023-04-16T03:01:55.695Z,64.93
2023-04-16T03:04:22.456Z,65.55
2023-04-16T03:06:49.376Z,65.28
2023-04-16T03:09:16.146Z,65.74
2023-04-16T03:11:42.720Z,65.39
2023-04-16T03:14:09.490Z,65.77
2023-04-16T03:16:38.556Z,65.31
2023-04-16T03:19:05.177Z,65.61
2023-04-16T03:21:31.968Z,65.56
2023-04-16T03:23:58.584Z,65.48
2023-04-16T03:26:25.307Z,65.16
2023-04-16T03:28:51.967Z,65.33
2023-04-16T03:31:18.660Z,65.63
2023-04-16T03:33:45.838Z,65.59
2023-04-16T03:36:14.633Z,65.86
2023-04-16T03:38:43.655Z,65.57
2023-04-16T03:41:10.275Z,65.79
2023-04-16T03:43:36.902Z,65.50
2023-04-16T03:46:03.661Z,65.76
2023-04-16T03:48:30.553Z,66.27
2023-04-16T03:50:57.219Z,66.52
2023-04-16T03:53:23.903Z,66.26
2023-04-16T03:55:54.108Z,66.34
2023-04-16T03:58:21.209Z,66.88
2023-04-16T04:00:47.899Z,66.69
2023-04-16T04:03:22.427Z,66.71
2023-04-16T04:05:49.164Z,66.36
2023-04-16T04:08:15.867Z,66.42
2023-04-16T04:10:42.437Z,66.48
2023-04-16T04:13:11.449Z,65.66
2023-04-16T04:15:38.091Z,66.02
2023-04-16T04:18:04.728Z,66.04
2023-04-16T04:20:31.391Z,65.88
2023-04-16T04:22:58.220Z,66.06
2023-04-16T04:25:25.153Z,66.52
2023-04-16T04:27:51.796Z,66.18
2023-04-16T04:30:18.442Z,66.10
2023-04-16T04:32:45.114Z,66.25
2023-04-16T04:35:11.756Z,66.32
2023-04-16T04:37:38.458Z,66.49
2023-04-16T04:40:05.728Z,66.52
2023-04-16T04:42:34.553Z,66.08
2023-04-16T04:45:01.160Z,66.17
2023-04-16T04:47:27.755Z,66.48
2023-04-16T04:49:54.397Z,66.07
2023-04-16T04:52:21.086Z,66.28
2023-04-16T04:54:47.678Z,66.13
2023-04-16T04:57:14.369Z,66.50
2023-04-16T04:59:41.220Z,66.54
2023-04-16T05:02:07.987Z,66.92
2023-04-16T05:04:34.755Z,66.60
2023-04-16T05:07:02.501Z,66.76
2023-04-16T05:09:31.545Z,66.78
2023-04-16T05:11:58.468Z,66.53
2023-04-16T05:14:25.112Z,66.95
2023-04-16T05:16:51.689Z,66.53
2023-04-16T05:19:20.632Z,67.22
2023-04-16T05:21:47.257Z,66.74
2023-04-16T05:24:14.974Z,67.23
2023-04-16T05:26:46.591Z,67.20
2023-04-16T05:29:13.220Z,66.82
2023-04-16T05:31:39.975Z,66.68
2023-04-16T05:34:06.577Z,66.57
2023-04-16T05:36:33.161Z,66.17
2023-04-16T05:38:59.794Z,66.34
2023-04-16T05:41:26.409Z,66.58
2023-04-16T05:43:52.982Z,66.46
2023-04-16T05:46:19.685Z,66.25
2023-04-16T05:48:48.551Z,65.43
2023-04-16T05:51:17.524Z,65.45
2023-04-16T05:53:44.149Z,65.63
2023-04-16T05:56:10.770Z,65.27
2023-04-16T05:58:42.173Z,65.36
2023-04-16T06:01:08.792Z,65.23
2023-04-16T06:03:35.852Z,65.37
2023-04-16T06:06:04.928Z,64.89
2023-04-16T06:08:31.734Z,64.57
2023-04-16T06:11:00.893Z,64.32
2023-04-16T06:13:27.455Z,64.40
2023-04-16T06:15:54.214Z,64.22
2023-04-16T06:18:23.550Z,64.43
2023-04-16T06:20:50.349Z,64.40
2023-04-16T06:23:21.853Z,64.42
2023-04-16T06:25:48.586Z,64.81
2023-04-16T06:28:15.375Z,64.70
2023-04-16T06:30:43.992Z,65.09
2023-04-16T06:33:11.366Z,65.06
2023-04-16T06:35:37.971Z,64.44
2023-04-16T06:38:04.589Z,64.19
2023-04-16T06:40:31.313Z,64.25
2023-04-16T06:42:57.893Z,64.09
2023-04-16T06:45:24.812Z,63.15
2023-04-16T06:47:52.473Z,62.70
2023-04-16T06:50:19.227Z,62.87
2023-04-16T06:52:46.380Z,62.54
2023-04-16T06:55:15.597Z,63.01
2023-04-16T06:57:44.287Z,62.91
2023-04-16T07:00:11.949Z,62.65
2023-04-16T07:02:38.703Z,62.33
2023-04-16T07:05:05.902Z,62.67
2023-04-16T07:07:34.792Z,62.89
2023-04-16T07:10:01.369Z,61.93
2023-04-16T07:12:28.162Z,62.12
2023-04-16T07:14:54.764Z,61.85
2023-04-16T07:17:23.740Z,61.53
2023-04-16T07:19:53.184Z,61.09
2023-04-16T07:22:24.927Z,61.14
2023-04-16T07:24:51.512Z,61.27
2023-04-16T07:27:20.506Z,60.85
2023-04-16T07:29:47.155Z,61.32
2023-04-16T07:32:15.436Z,61.30
2023-04-16T07:34:44.879Z,61.18
2023-04-16T07:37:11.482Z,60.78
2023-04-16T07:39:38.074Z,60.83
2023-04-16T07:42:04.791Z,60.42
2023-04-16T07:44:31.721Z,60.22
2023-04-16T07:46:58.567Z,60.17
2023-04-16T07:49:27.363Z,60.41
2023-04-16T07:51:53.987Z,59.99
2023-04-16T07:54:20.951Z,60.03
2023-04-16T07:56:49.991Z,58.95
2023-04-16T07:59:22.817Z,59.75
2023-04-16T08:01:52.373Z,59.53
2023-04-16T08:04:24.833Z,59.67
2023-04-16T08:06:52.394Z,59.22
2023-04-16T08:09:23.764Z,59.41
2023-04-16T08:11:50.942Z,59.29
2023-04-16T08:14:20.018Z,58.95
2023-04-16T08:16:49.342Z,58.86
2023-04-16T08:19:16.222Z,58.78
2023-04-16T08:21:45.216Z,58.44
2023-04-16T08:24:12.026Z,58.59
2023-04-16T08:26:38.767Z,58.42
2023-04-16T08:29:07.900Z,58.34
2023-04-16T08:31:34.741Z,58.40
2023-04-16T08:34:03.810Z,58.40
2023-04-16T08:36:31.421Z,58.15
2023-04-16T08:38:58.312Z,57.81
2023-04-16T08:41:27.066Z,57.74
2023-04-16T08:44:02.458Z,58.24
2023-04-16T08:46:29.984Z,58.25
2023-04-16T08:49:01.128Z,58.26
2023-04-16T08:51:32.475Z,59.54
2023-04-16T08:54:12.075Z,58.85
2023-04-16T08:56:43.072Z,59.12
2023-04-16T08:59:10.240Z,59.69
2023-04-16T09:01:39.104Z,59.47
2023-04-16T09:04:07.357Z,59.11
2023-04-16T09:06:36.628Z,58.11
2023-04-16T09:09:05.788Z,58.62
2023-04-16T09:11:32.584Z,57.97
2023-04-16T09:14:02.053Z,58.47
2023-04-16T09:16:33.588Z,58.42
2023-04-16T09:19:00.425Z,57.52
2023-04-16T09:21:28.066Z,58.12
2023-04-16T09:23:55.312Z,57.50
2023-04-16T09:26:22.734Z,57.21
2023-04-16T09:28:51.970Z,57.35
2023-04-16T09:31:19.876Z,57.15
2023-04-16T09:34:06.092Z,56.19
2023-04-16T09:36:33.829Z,56.07
2023-04-16T09:39:00.774Z,55.80
2023-04-16T09:41:33.311Z,54.77
2023-04-16T09:44:05.223Z,54.61
2023-04-16T09:46:35.645Z,54.61
2023-04-16T09:49:10.390Z,54.17
2023-04-16T09:51:38.378Z,52.83
2023-04-16T09:54:05.861Z,52.43
2023-04-16T09:56:40.212Z,52.78
2023-04-16T09:59:07.099Z,52.64
2023-04-16T10:01:36.067Z,52.59
2023-04-16T10:04:06.940Z,52.29
2023-04-16T10:06:33.803Z,52.48
2023-04-16T10:09:00.469Z,52.35
2023-04-16T10:11:32.973Z,52.18
2023-04-16T10:13:59.622Z,51.45
2023-04-16T10:16:26.794Z,51.80
2023-04-16T10:18:54.469Z,51.00
2023-04-16T10:21:21.627Z,51.19
2023-04-16T10:23:54.145Z,51.03
2023-04-16T10:26:21.936Z,50.61
2023-04-16T10:28:48.765Z,49.71
2023-04-16T10:31:15.816Z,49.32
2023-04-16T10:33:46.293Z,48.02
2023-04-16T10:36:15.100Z,48.17
2023-04-16T10:38:46.389Z,47.28
2023-04-16T10:41:13.648Z,47.29
2023-04-16T10:43:47.611Z,46.86
2023-04-16T10:46:26.814Z,46.24
2023-04-16T10:48:57.453Z,46.63
2023-04-16T10:51:31.766Z,45.88
2023-04-16T10:54:19.445Z,45.63
2023-04-16T10:56:46.960Z,45.92
2023-04-16T10:59:13.909Z,45.26
2023-04-16T11:01:45.519Z,46.06
2023-04-16T11:04:22.072Z,45.27
2023-04-16T11:07:17.108Z,45.31
2023-04-16T11:09:47.131Z,46.12
2023-04-16T11:12:16.176Z,45.32
2023-04-16T11:14:43.284Z,45.40
2023-04-16T11:17:10.307Z,44.87
2023-04-16T11:19:39.833Z,44.68
2023-04-16T11:22:06.664Z,45.05
2023-04-16T11:24:36.194Z,45.39
2023-04-16T11:27:03.231Z,44.84
2023-04-16T11:29:29.853Z,44.64
2023-04-16T11:31:56.592Z,44.53
2023-04-16T11:34:23.320Z,44.61
2023-04-16T11:36:51.773Z,44.20
2023-04-16T11:39:21.565Z,43.61
2023-04-16T11:41:49.962Z,42.74
2023-04-16T11:44:17.412Z,42.39
2023-04-16T11:46:44.197Z,42.65
2023-04-16T11:49:15.646Z,42.75
2023-04-16T11:51:44.335Z,42.45
2023-04-16T11:54:19.550Z,41.79
2023-04-16T11:56:48.006Z,41.57
2023-04-16T11:59:17.701Z,40.61
2023-04-16T12:01:57.520Z,40.08
2023-04-16T12:04:29.578Z,39.99
2023-04-16T12:07:12.826Z,39.99
2023-04-16T12:09:41.717Z,39.66
2023-04-16T12:12:27.483Z,38.55
2023-04-16T12:14:56.979Z,39.72
2023-04-16T12:17:26.367Z,39.72
2023-04-16T12:19:56.858Z,39.19
2023-04-16T12:22:46.909Z,39.02
2023-04-16T12:25:14.895Z,39.15
2023-04-16T12:27:54.071Z,38.48
2023-04-16T12:30:26.524Z,38.33
2023-04-16T12:33:18.538Z,37.19
2023-04-16T12:35:47.970Z,37.42
2023-04-16T12:38:17.543Z,37.19
2023-04-16T12:40:44.532Z,37.89
2023-04-16T12:43:11.271Z,38.11
2023-04-16T12:45:39.304Z,37.71
2023-04-16T12:48:09.359Z,37.98
2023-04-16T12:50:39.841Z,37.10
2023-04-16T12:53:06.669Z,37.64
2023-04-16T12:55:36.109Z,36.55
2023-04-16T12:58:02.840Z,36.89
2023-04-16T13:00:29.465Z,36.38
2023-04-16T13:02:56.266Z,36.13
2023-04-16T13:05:22.997Z,36.02
2023-04-16T13:07:52.044Z,35.68
2023-04-16T13:10:21.101Z,35.84
2023-04-16T13:12:47.864Z,35.61
2023-04-16T13:15:17.005Z,35.39
2023-04-16T13:17:45.066Z,35.77
2023-04-16T13:20:11.892Z,35.71
2023-04-16T13:22:42.784Z,35.21
2023-04-16T13:25:09.971Z,35.55
2023-04-16T13:27:36.629Z,34.83
2023-04-16T13:30:03.414Z,34.90
2023-04-16T13:32:30.107Z,34.29
2023-04-16T13:34:56.837Z,34.26
2023-04-16T13:37:25.971Z,34.50
2023-04-16T13:39:52.655Z,34.17
2023-04-16T13:42:19.283Z,34.54
2023-04-16T13:44:48.970Z,34.55
2023-04-16T13:47:16.174Z,35.19
2023-04-16T13:49:42.830Z,34.83
2023-04-16T13:52:09.466Z,34.51
2023-04-16T13:54:38.712Z,34.69
2023-04-16T13:57:05.361Z,34.76
2023-04-16T13:59:32.037Z,35.32
2023-04-16T14:02:00.798Z,35.29
2023-04-16T14:04:27.482Z,35.68
2023-04-16T14:06:54.238Z,35.88
2023-04-16T14:09:23.467Z,36.26
2023-04-16T14:11:51.083Z,36.44
2023-04-16T14:14:17.731Z,36.81
2023-04-16T14:16:44.646Z,36.35
2023-04-16T14:19:11.686Z,37.10
2023-04-16T14:21:38.519Z,37.00
2023-04-16T14:24:09.224Z,36.94
2023-04-16T14:26:36.049Z,37.27
2023-04-16T14:29:02.712Z,37.00
2023-04-16T14:31:29.441Z,37.19
2023-04-16T14:33:56.029Z,37.41
2023-04-16T14:36:23.312Z,37.43
2023-04-16T14:38:49.946Z,37.57
2023-04-16T14:41:18.867Z,37.62
2023-04-16T14:43:45.579Z,37.73
2023-04-16T14:46:12.479Z,37.28
2023-04-16T14:48:41.520Z,36.92
2023-04-16T14:51:08.735Z,36.87
2023-04-16T14:53:37.634Z,37.15
2023-04-16T14:56:05.972Z,37.24
2023-04-16T14:58:32.723Z,37.40
2023-04-16T15:00:59.521Z,37.17
2023-04-16T15:03:26.753Z,36.86
2023-04-16T15:05:56.434Z,37.10
2023-04-16T15:08:23.955Z,36.90
2023-04-16T15:10:55.971Z,37.15
2023-04-16T15:13:22.572Z,37.61
2023-04-16T15:15:49.950Z,37.13
2023-04-16T15:18:17.402Z,37.12
2023-04-16T15:20:46.415Z,36.38
2023-04-16T15:23:15.569Z,36.88
2023-04-16T15:25:46.934Z,36.55
2023-04-16T15:28:13.566Z,36.81
2023-04-16T15:30:44.555Z,36.68
2023-04-16T15:33:12.207Z,36.93
2023-04-16T15:35:41.432Z,37.05
2023-04-16T15:38:08.605Z,37.41
2023-04-16T15:40:36.542Z,37.70
2023-04-16T15:43:03.375Z,37.70
2023-04-16T15:45:30.108Z,38.00
2023-04-16T15:47:59.312Z,38.07
2023-04-16T15:50:28.517Z,38.00
2023-04-16T15:52:57.701Z,38.35
2023-04-16T15:55:24.395Z,38.26
2023-04-16T15:57:51.517Z,38.29
2023-04-16T16:00:19.067Z,38.64
2023-04-16T16:02:47.112Z,38.91
2023-04-16T16:05:17.172Z,39.10
2023-04-16T16:07:43.987Z,39.17
2023-04-16T16:10:13.028Z,39.32
2023-04-16T16:12:41.253Z,39.27
2023-04-16T16:15:11.144Z,39.45
2023-04-16T16:17:38.406Z,39.64
2023-04-16T16:20:10.546Z,39.74
2023-04-16T16:22:38.235Z,40.23
2023-04-16T16:25:05.924Z,40.62
2023-04-16T16:27:36.345Z,40.41
2023-04-16T16:30:04.805Z,41.14
2023-04-16T16:32:31.491Z,41.29
2023-04-16T16:34:58.126Z,41.37
2023-04-16T16:37:24.917Z,40.46
2023-04-16T16:39:54.064Z,40.55
2023-04-16T16:42:20.931Z,40.79
2023-04-16T16:44:50.617Z,40.85
2023-04-16T16:47:17.365Z,39.93
2023-04-16T16:49:44.692Z,40.15
2023-04-16T16:52:13.824Z,40.51
2023-04-16T16:54:40.756Z,40.15
2023-04-16T16:57:07.361Z,40.18
2023-04-16T16:59:34.068Z,40.04
2023-04-16T17:02:03.015Z,39.96
2023-04-16T17:04:31.870Z,40.58
2023-04-16T17:07:01.244Z,40.13
2023-04-16T17:09:30.704Z,40.50
2023-04-16T17:11:57.494Z,39.97
2023-04-16T17:14:26.488Z,39.98
2023-04-16T17:16:53.519Z,40.35
2023-04-16T17:19:20.165Z,40.19
2023-04-16T17:21:49.184Z,40.05
2023-04-16T17:24:15.892Z,40.46
2023-04-16T17:26:42.689Z,39.84
2023-04-16T17:29:09.482Z,40.09
2023-04-16T17:31:36.537Z,40.72
2023-04-16T17:34:05.961Z,40.80
2023-04-16T17:36:32.851Z,40.85
2023-04-16T17:38:59.498Z,41.05
2023-04-16T17:41:28.693Z,40.76
2023-04-16T17:43:55.409Z,40.07
2023-04-16T17:46:22.153Z,41.01
2023-04-16T17:48:49.007Z,40.69
2023-04-16T17:51:16.674Z,41.58
2023-04-16T17:53:43.622Z,41.52
2023-04-16T17:56:11.326Z,41.40
2023-04-16T17:58:37.965Z,41.57
2023-04-16T18:01:06.844Z,42.38
2023-04-16T18:03:37.134Z,42.90
2023-04-16T18:06:04.204Z,42.95
2023-04-16T18:08:31.266Z,43.36
2023-04-16T18:10:57.960Z,43.45
2023-04-16T18:13:27.323Z,43.26
2023-04-16T18:15:54.237Z,43.08
2023-04-16T18:18:21.481Z,43.43
2023-04-16T18:20:48.187Z,43.38
2023-04-16T18:23:14.940Z,43.29
2023-04-16T18:25:41.889Z,43.81
2023-04-16T18:28:13.874Z,43.41
2023-04-16T18:30:41.046Z,44.24
2023-04-16T18:33:38.840Z,43.96
2023-04-16T18:36:02.398Z,44.64
2023-04-16T18:38:32.144Z,45.02
2023-04-16T18:41:02.061Z,45.10
2023-04-16T18:43:28.795Z,45.90
2023-04-16T18:45:55.416Z,46.18
2023-04-16T18:48:22.348Z,46.60
2023-04-16T18:50:51.080Z,46.23
2023-04-16T18:53:17.758Z,46.68
2023-04-16T18:55:44.443Z,47.63
2023-04-16T18:58:11.108Z,48.14
2023-04-16T19:00:42.654Z,48.54
2023-04-16T19:03:11.508Z,48.48
2023-04-16T19:05:38.230Z,48.97
2023-04-16T19:08:05.188Z,49.06
2023-04-16T19:10:34.105Z,49.23
2023-04-16T19:13:03.276Z,50.08
2023-04-16T19:15:32.037Z,50.39
2023-04-16T19:17:59.903Z,50.48
2023-04-16T19:20:28.825Z,50.17
2023-04-16T19:22:55.689Z,50.78
2023-04-16T19:25:24.702Z,50.77
2023-04-16T19:27:51.687Z,51.06
2023-04-16T19:30:18.485Z,51.05
2023-04-16T19:32:47.612Z,51.45
2023-04-16T19:35:14.378Z,51.60
2023-04-16T19:37:43.594Z,51.78
2023-04-16T19:40:10.966Z,51.31
2023-04-16T19:42:37.571Z,51.02
2023-04-16T19:45:07.430Z,51.26
2023-04-16T19:47:34.078Z,51.62
2023-04-16T19:50:00.821Z,51.63
2023-04-16T19:52:27.486Z,51.31
2023-04-16T19:54:54.170Z,52.32
2023-04-16T19:57:20.774Z,51.96
2023-04-16T19:59:49.752Z,51.96
2023-04-16T20:02:16.496Z,51.98
2023-04-16T20:04:43.236Z,52.50
2023-04-16T20:07:09.918Z,52.26
2023-04-16T20:09:36.581Z,52.72
2023-04-16T20:12:05.458Z,52.41
2023-04-16T20:14:34.624Z,52.74
2023-04-16T20:17:03.557Z,53.26
2023-04-16T20:19:31.548Z,52.93
2023-04-16T20:21:58.161Z,53.01
2023-04-16T20:24:25.032Z,53.18
2023-04-16T20:26:51.680Z,53.25
2023-04-16T20:29:18.429Z,53.87
2023-04-16T20:31:48.717Z,53.53
2023-04-16T20:34:15.378Z,53.50
2023-04-16T20:36:44.344Z,53.15
2023-04-16T20:39:11.770Z,53.62
2023-04-16T20:41:43.826Z,53.30
2023-04-16T20:44:18.118Z,54.44
2023-04-16T20:46:49.477Z,53.81
2023-04-16T20:49:18.519Z,54.56
2023-04-16T20:51:45.181Z,54.64
2023-04-16T20:54:16.437Z,55.14
2023-04-16T20:56:45.963Z,54.73
2023-04-16T20:59:13.498Z,55.69
2023-04-16T21:01:40.245Z,55.58
2023-04-16T21:04:09.659Z,55.21
2023-04-16T21:06:43.238Z,55.27
2023-04-16T21:09:13.168Z,55.49
2023-04-16T21:11:39.983Z,55.58
2023-04-16T21:14:06.902Z,55.06
2023-04-16T21:16:33.574Z,55.56
2023-04-16T21:19:02.371Z,55.56
2023-04-16T21:21:29.305Z,55.30
2023-04-16T21:23:58.474Z,55.61
2023-04-16T21:26:25.239Z,55.77
2023-04-16T21:28:53.305Z,56.41
2023-04-16T21:31:21.772Z,56.45
2023-04-16T21:33:50.818Z,57.24
2023-04-16T21:36:17.452Z,56.66
2023-04-16T21:38:46.564Z,56.81
2023-04-16T21:41:13.204Z,57.44
2023-04-16T21:43:42.001Z,56.91
2023-04-16T21:46:08.782Z,56.77
2023-04-16T21:48:35.581Z,57.77
2023-04-16T21:51:10.146Z,57.51
2023-04-16T21:53:38.775Z,57.58
2023-04-16T21:56:06.491Z,57.78
2023-04-16T21:58:33.151Z,58.45
2023-04-16T22:01:04.593Z,58.03
2023-04-16T22:03:31.432Z,57.72
2023-04-16T22:06:00.928Z,58.43
2023-04-16T22:08:29.265Z,58.13
2023-04-16T22:11:00.169Z,58.53
2023-04-16T22:13:32.610Z,58.42
2023-04-16T22:16:02.901Z,58.21
2023-04-16T22:18:32.957Z,58.51
2023-04-16T22:21:00.377Z,58.98
2023-04-16T22:23:27.167Z,58.94
2023-04-16T22:25:56.414Z,59.19
2023-04-16T22:28:23.610Z,58.78
2023-04-16T22:30:50.549Z,59.13
2023-04-16T22:33:17.570Z,59.32
2023-04-16T22:35:44.749Z,59.07
2023-04-16T22:38:11.466Z,59.49
2023-04-16T22:40:38.136Z,59.42
2023-04-16T22:43:07.120Z,59.52
2023-04-16T22:45:34.716Z,59.95
2023-04-16T22:48:01.354Z,59.91
2023-04-16T22:50:28.620Z,60.09
2023-04-16T22:53:00.112Z,60.00
2023-04-16T22:55:29.025Z,59.75
2023-04-16T22:57:55.656Z,60.07
2023-04-16T23:00:25.046Z,59.94
2023-04-16T23:02:53.979Z,60.17
2023-04-16T23:05:22.890Z,60.32
2023-04-16T23:07:49.510Z,60.67
2023-04-16T23:10:16.302Z,60.24
2023-04-16T23:12:45.551Z,60.87
2023-04-16T23:15:12.264Z,61.17
2023-04-16T23:17:43.733Z,61.43
2023-04-16T23:20:13.386Z,61.32
2023-04-16T23:22:41.115Z,61.36
2023-04-16T23:25:15.501Z,61.36
2023-04-16T23:27:42.184Z,61.37
2023-04-16T23:30:11.506Z,61.78
2023-04-16T23:32:38.405Z,61.69
2023-04-16T23:35:05.697Z,61.92
2023-04-16T23:37:34.544Z,61.51
2023-04-16T23:40:04.695Z,62.04
2023-04-16T23:42:31.308Z,61.86
2023-04-16T23:45:02.759Z,62.33
2023-04-16T23:47:29.412Z,61.78
2023-04-16T23:49:58.529Z,62.25
2023-04-16T23:52:25.173Z,62.57
2023-04-16T23:54:51.864Z,62.38
2023-04-16T23:57:19.219Z,62.30
2023-04-16T23:59:48.218Z,62.53
